Terminal Aerodrome Forecast
Issued by NWS

Home | Current Version | Previous Version | Text Only | Print | Product List | Glossary On
Versions: 1 2 3 4 5 6 7 8 9 10 11 12 13 14 15 16 17 18 19 20 21 22 23 24
000
FTUS43 KDLH 292300
TAFHIB
TAF
KHIB 292339Z 3000/3024 35012KT P6SM BKN030
      TEMPO 3000/3001 36014G21KT BKN022
     FM300300 35010KT P6SM SCT030
     FM301400 35012KT P6SM SKC
     FM302300 03008KT P6SM SKC=

USA.gov is the U.S. government's official web portal to all federal, state and local government web resources and services.